AirNav  
 
 1349 users online  

OG34 Meyer Riverside Airpark
Tigard, Oregon, USA

GOING TO TIGARD?


FAA INFORMATION EFFECTIVE 25 FEBRUARY 2021

Location

FAA Identifier: OG34
Lat/Long: 45-23-59.4250N 122-49-44.3540W
45-23.990417N 122-49.739233W
45.3998403,-122.8289872
(estimated)
Elevation: 252 ft. / 77 m (estimated)
Variation: 19E (1985)
From city: 3 miles SW of TIGARD, OR
Time zone: UTC -8 (UTC -7 during Daylight Saving Time)
Zip code: 97224

Airport Operations

Airport use: Private use. Permission required prior to landing
Activation date: 05/1956
Control tower: no
ARTCC: SEATTLE CENTER
FSS: MC MINNVILLE FLIGHT SERVICE STATION
Attendance: ON CALL ON CALL
Wind indicator: yes
Segmented circle: no

Airport Communications

WX ASOS at UAO (9 nm S): PHONE 503-678-3011
WX ASOS at HIO (10 nm NW): 127.65 (503-640-2984)
WX ASOS at PDX (15 nm NE): PHONE (503) 493-7687
WX ASOS at VUO (15 nm NE): 135.125 (360-696-1280)
WX ASOS at MMV (18 nm SW): 135.675 (503-434-9153)

Nearby radio navigation aids

VOR radial/distance  VOR name  Freq  Var
UBGr045/6.9NEWBERG VOR/DME117.4021E
BTGr185/23.1BATTLE GROUND VORTAC116.6021E

 
NDB name  Hdg/Dist  Freq  Var  ID
BANKS131/16.635616EPND .--. -. -..

Airport Services

Airframe service: NONE
Powerplant service: NONE

Runway Information

Runway 16/34

Dimensions: 1585 x 100 ft. / 483 x 30 m
Surface: turf
RUNWAY 16  RUNWAY 34
Traffic pattern: leftleft
Obstructions: plines, 10 ft. from runwaytrees, 100 ft. from runway

Airport Ownership and Management from official FAA records

Ownership: Privately-owned
Owner: JAMES MEYER
14730 SW BEEF BEND RD
TIGARD, OR 97224
Phone 503-590-6903
Manager: JAMES MEYER
14730 SW BEEF BEND RD
TIGARD, OR 97224
Phone 503-590-6903

Airport Operational Statistics

Aircraft based on the field: 2
Single engine airplanes: 1
Helicopters: 1
    

Additional Remarks

FOR CD CTC PORTLAND APCH AT 503-493-7545.

Instrument Procedures

There are no published instrument procedures at OG34.

Some nearby airports with instrument procedures:

KUAO - Aurora State Airport (9 nm S)
KHIO - Portland-Hillsboro Airport (10 nm NW)
KPDX - Portland International Airport (15 nm NE)
KVUO - Pearson Field Airport (15 nm NE)
KMMV - Mc Minnville Municipal Airport (18 nm SW)
 
Loc | Ops | Rwys | IFR | FBO | Links
Com | Nav | Svcs | Stats | Notes
Area around OG34 (Meyer Riverside Airpark)
 
Road maps at: MapQuest Bing Google
 
Aerial photo
WARNING: Photo may not be current or correct
Aerial photo of OG34 (Meyer Riverside Airpark)
Do you have a better or more recent aerial photo of Meyer Riverside Airpark that you would like to share? If so, please send us your photo.

 
Sectional chart

 
Airport distance calculator
Flying to Meyer Riverside Airpark? Find the distance to fly.

From to OG34

Sunrise and sunset
Times for 05-Mar-2021
 Local
(UTC-8)
 Zulu
(UTC)
Morning civil twilight06:1414:14
Sunrise06:4314:43
Sunset18:0202:02
Evening civil twilight18:3202:32

Current date and time
Zulu (UTC)  05-Mar-2021 16:41:55
Local (UTC-8)  05-Mar-2021 08:41:55
 
METAR
KUAO 
9nm S 
051553Z 00000KT 5SM BR OVC065 05/04 A2996 RMK AO2 RAB19E37 SLP144 P0001 T00500039
KHIO 
10nm NW 
051553Z 18010KT 6SM -RA BKN055 BKN070 OVC090 09/06 A2992 RMK AO2 SLP132 P0000 T00940056
KPDX 
15nm NE 
051553Z 12007KT 10SM -RA BKN075 OVC090 07/03 A2995 RMK AO2 RAB35 SLP140 P0000 T00720028
KVUO 
15nm NE 
051553Z AUTO 10005KT 10SM -RA BKN070 OVC085 07/02 A2994 RMK AO2 RAB17 SLP138 P0000 T00720017
KMMV 
18nm SW 
051553Z AUTO 14007KT 4SM -RA BR OVC050 07/05 A2993 RMK AO2 SLP135 P0001 T00720050
KTTD 
20nm NE 
051553Z 12006KT 10SM -RA BKN065 OVC080 08/02 A2995 RMK AO2 RAB44 SLP142 P0000 T00780017 $
TAF
KHIO 
10nm NW 
051348Z 0514/0612 14005KT 1 1/2SM -RA BR BKN001 OVC015 FM051430 VRB05KT 4SM -RA BR OVC040 WS020/19040KT FM051600 20010G21KT 6SM -RA OVC030 WS020/20035KT FM051800 18010G18KT P6SM -RA OVC024 FM052100 20007KT P6SM VCSH OVC025 FM052300 20007KT P6SM OVC045
KPDX 
15nm NE 
051326Z 0513/0612 10008KT P6SM BKN110 FM051500 13005KT 6SM -RA OVC050 WS020/19040KT FM051700 18012G22KT 6SM -RA OVC035 FM052000 19008KT P6SM -RA OVC035 FM060100 17006KT P6SM OVC045
NOTAMs
Click for the latest NOTAMs
NOTAMs are issued by the DoD/FAA and will open in a separate window not controlled by AirNav.

 

 
 

Would you like to see your business listed on this page?

 If your business provides an interesting product or service to pilots, flight crews, aircraft, or users of the Meyer Riverside Airpark, you should consider listing it here.  To start the listing process, click on the button below
 
Add a business
 

Other Pages about Meyer Riverside Airpark

Update a link
 
Copyright © AirNav, LLC. All rights reserved. Privacy Policy  Contact